sensor_id;sensor_type;location;lat;lon;timestamp;P1;durP1;ratioP1;P2;durP2;ratioP2
842;SDS011;407;48.884;9.126;2023-08-17T00:01:22;11.13;;;5.43;;
842;SDS011;407;48.884;9.126;2023-08-17T00:03:48;10.40;;;5.10;;
842;SDS011;407;48.884;9.126;2023-08-17T00:06:13;13.80;;;5.30;;
842;SDS011;407;48.884;9.126;2023-08-17T00:08:39;12.10;;;4.97;;
842;SDS011;407;48.884;9.126;2023-08-17T00:11:05;12.27;;;5.97;;
842;SDS011;407;48.884;9.126;2023-08-17T00:13:31;12.43;;;5.50;;
842;SDS011;407;48.884;9.126;2023-08-17T00:15:56;10.10;;;4.90;;
842;SDS011;407;48.884;9.126;2023-08-17T00:18:22;10.23;;;5.60;;
842;SDS011;407;48.884;9.126;2023-08-17T00:20:47;11.00;;;5.57;;
842;SDS011;407;48.884;9.126;2023-08-17T00:23:13;10.60;;;5.50;;
842;SDS011;407;48.884;9.126;2023-08-17T00:25:38;11.80;;;5.53;;
842;SDS011;407;48.884;9.126;2023-08-17T00:28:06;12.05;;;5.55;;
842;SDS011;407;48.884;9.126;2023-08-17T00:30:32;11.40;;;6.10;;
842;SDS011;407;48.884;9.126;2023-08-17T00:33:01;12.50;;;6.50;;
842;SDS011;407;48.884;9.126;2023-08-17T00:35:27;11.75;;;5.70;;
842;SDS011;407;48.884;9.126;2023-08-17T00:37:52;16.80;;;6.67;;
842;SDS011;407;48.884;9.126;2023-08-17T00:40:18;11.90;;;6.17;;
842;SDS011;407;48.884;9.126;2023-08-17T00:42:44;11.50;;;5.57;;
842;SDS011;407;48.884;9.126;2023-08-17T00:45:09;11.65;;;5.80;;
842;SDS011;407;48.884;9.126;2023-08-17T00:47:35;10.90;;;5.40;;
842;SDS011;407;48.884;9.126;2023-08-17T00:50:01;12.70;;;6.15;;
842;SDS011;407;48.884;9.126;2023-08-17T00:52:27;13.80;;;5.90;;
842;SDS011;407;48.884;9.126;2023-08-17T00:54:54;10.10;;;5.50;;
842;SDS011;407;48.884;9.126;2023-08-17T00:57:21;15.75;;;6.70;;
842;SDS011;407;48.884;9.126;2023-08-17T00:59:48;11.18;;;5.57;;
842;SDS011;407;48.884;9.126;2023-08-17T01:02:13;13.63;;;6.13;;
842;SDS011;407;48.884;9.126;2023-08-17T01:04:39;12.37;;;5.50;;
842;SDS011;407;48.884;9.126;2023-08-17T01:07:04;12.20;;;5.40;;
842;SDS011;407;48.884;9.126;2023-08-17T01:09:30;13.47;;;5.43;;
842;SDS011;407;48.884;9.126;2023-08-17T01:12:10;10.90;;;5.93;;
842;SDS011;407;48.884;9.126;2023-08-17T01:17:42;10.18;;;5.10;;
842;SDS011;407;48.884;9.126;2023-08-17T01:20:11;10.10;;;4.65;;
842;SDS011;407;48.884;9.126;2023-08-17T01:22:40;11.55;;;5.00;;
842;SDS011;407;48.884;9.126;2023-08-17T01:25:07;11.88;;;4.90;;
842;SDS011;407;48.884;9.126;2023-08-17T01:27:44;9.05;;;4.28;;
842;SDS011;407;48.884;9.126;2023-08-17T01:30:11;9.02;;;3.72;;
842;SDS011;407;48.884;9.126;2023-08-17T01:32:51;8.73;;;3.85;;
842;SDS011;407;48.884;9.126;2023-08-17T01:37:47;12.70;;;4.93;;
842;SDS011;407;48.884;9.126;2023-08-17T01:40:16;10.38;;;3.83;;
842;SDS011;407;48.884;9.126;2023-08-17T01:42:42;9.57;;;4.00;;
842;SDS011;407;48.884;9.126;2023-08-17T01:45:08;12.40;;;4.50;;
842;SDS011;407;48.884;9.126;2023-08-17T01:47:35;8.18;;;3.75;;
842;SDS011;407;48.884;9.126;2023-08-17T01:50:00;10.93;;;4.53;;
842;SDS011;407;48.884;9.126;2023-08-17T01:52:29;9.33;;;3.60;;
842;SDS011;407;48.884;9.126;2023-08-17T01:54:54;10.10;;;3.50;;
842;SDS011;407;48.884;9.126;2023-08-17T01:57:20;8.10;;;3.72;;
842;SDS011;407;48.884;9.126;2023-08-17T01:59:45;8.27;;;4.07;;
842;SDS011;407;48.884;9.126;2023-08-17T02:02:11;11.70;;;4.45;;
842;SDS011;407;48.884;9.126;2023-08-17T02:04:39;8.63;;;3.70;;
842;SDS011;407;48.884;9.126;2023-08-17T02:07:05;8.70;;;3.92;;
842;SDS011;407;48.884;9.126;2023-08-17T02:09:30;9.13;;;4.38;;
842;SDS011;407;48.884;9.126;2023-08-17T02:11:56;10.80;;;4.10;;
842;SDS011;407;48.884;9.126;2023-08-17T02:14:21;8.93;;;4.00;;
842;SDS011;407;48.884;9.126;2023-08-17T02:16:47;10.45;;;4.75;;
842;SDS011;407;48.884;9.126;2023-08-17T02:19:12;9.70;;;4.90;;
842;SDS011;407;48.884;9.126;2023-08-17T02:21:38;10.83;;;4.80;;
842;SDS011;407;48.884;9.126;2023-08-17T02:24:04;10.93;;;4.93;;
842;SDS011;407;48.884;9.126;2023-08-17T02:26:30;9.77;;;4.30;;
842;SDS011;407;48.884;9.126;2023-08-17T02:28:55;12.52;;;4.70;;
842;SDS011;407;48.884;9.126;2023-08-17T02:31:21;11.45;;;4.55;;
842;SDS011;407;48.884;9.126;2023-08-17T02:33:46;8.90;;;4.07;;
842;SDS011;407;48.884;9.126;2023-08-17T02:36:12;8.25;;;4.28;;
842;SDS011;407;48.884;9.126;2023-08-17T02:38:38;9.57;;;4.03;;
842;SDS011;407;48.884;9.126;2023-08-17T02:41:03;11.30;;;4.27;;
842;SDS011;407;48.884;9.126;2023-08-17T02:43:29;9.10;;;4.00;;
842;SDS011;407;48.884;9.126;2023-08-17T02:45:54;10.27;;;4.17;;
842;SDS011;407;48.884;9.126;2023-08-17T02:48:20;8.67;;;4.03;;
842;SDS011;407;48.884;9.126;2023-08-17T02:50:45;11.33;;;4.70;;
842;SDS011;407;48.884;9.126;2023-08-17T02:53:11;10.33;;;4.20;;
842;SDS011;407;48.884;9.126;2023-08-17T02:55:36;9.43;;;4.43;;
842;SDS011;407;48.884;9.126;2023-08-17T02:58:02;9.43;;;3.70;;
842;SDS011;407;48.884;9.126;2023-08-17T03:00:28;9.57;;;4.55;;
842;SDS011;407;48.884;9.126;2023-08-17T03:02:53;9.60;;;4.63;;
842;SDS011;407;48.884;9.126;2023-08-17T03:05:19;10.48;;;4.70;;
842;SDS011;407;48.884;9.126;2023-08-17T03:07:44;9.73;;;4.43;;
842;SDS011;407;48.884;9.126;2023-08-17T03:10:10;10.70;;;4.50;;
842;SDS011;407;48.884;9.126;2023-08-17T03:12:36;11.83;;;4.70;;
842;SDS011;407;48.884;9.126;2023-08-17T03:15:03;9.35;;;4.07;;
842;SDS011;407;48.884;9.126;2023-08-17T03:17:31;10.63;;;4.22;;
842;SDS011;407;48.884;9.126;2023-08-17T03:19:57;10.10;;;4.43;;
842;SDS011;407;48.884;9.126;2023-08-17T03:22:25;13.90;;;5.20;;
842;SDS011;407;48.884;9.126;2023-08-17T03:24:50;12.82;;;4.00;;
842;SDS011;407;48.884;9.126;2023-08-17T03:27:16;9.63;;;4.25;;
842;SDS011;407;48.884;9.126;2023-08-17T03:29:42;11.88;;;4.90;;
842;SDS011;407;48.884;9.126;2023-08-17T03:32:07;13.45;;;5.20;;
842;SDS011;407;48.884;9.126;2023-08-17T03:34:33;11.80;;;5.38;;
842;SDS011;407;48.884;9.126;2023-08-17T03:36:58;10.90;;;4.90;;
842;SDS011;407;48.884;9.126;2023-08-17T03:39:24;11.43;;;5.50;;
842;SDS011;407;48.884;9.126;2023-08-17T03:41:49;12.80;;;5.47;;
842;SDS011;407;48.884;9.126;2023-08-17T03:44:15;11.47;;;5.70;;
842;SDS011;407;48.884;9.126;2023-08-17T03:46:41;14.30;;;5.43;;
842;SDS011;407;48.884;9.126;2023-08-17T03:49:06;15.17;;;5.63;;
842;SDS011;407;48.884;9.126;2023-08-17T03:51:32;12.50;;;5.50;;
842;SDS011;407;48.884;9.126;2023-08-17T03:53:57;11.40;;;4.63;;
842;SDS011;407;48.884;9.126;2023-08-17T03:56:23;12.20;;;5.70;;
842;SDS011;407;48.884;9.126;2023-08-17T03:58:49;11.00;;;5.40;;
842;SDS011;407;48.884;9.126;2023-08-17T04:01:15;13.00;;;5.50;;
842;SDS011;407;48.884;9.126;2023-08-17T04:03:40;15.93;;;6.30;;
842;SDS011;407;48.884;9.126;2023-08-17T04:06:06;14.13;;;6.17;;
842;SDS011;407;48.884;9.126;2023-08-17T04:08:35;17.20;;;6.10;;
842;SDS011;407;48.884;9.126;2023-08-17T04:11:01;14.90;;;6.05;;
842;SDS011;407;48.884;9.126;2023-08-17T04:13:26;16.67;;;6.80;;
842;SDS011;407;48.884;9.126;2023-08-17T04:15:52;14.30;;;7.23;;
842;SDS011;407;48.884;9.126;2023-08-17T04:18:18;15.53;;;7.60;;
842;SDS011;407;48.884;9.126;2023-08-17T04:20:43;15.57;;;7.13;;
842;SDS011;407;48.884;9.126;2023-08-17T04:23:08;15.87;;;7.40;;
842;SDS011;407;48.884;9.126;2023-08-17T04:25:34;17.43;;;6.47;;
842;SDS011;407;48.884;9.126;2023-08-17T04:28:01;13.50;;;6.40;;
842;SDS011;407;48.884;9.126;2023-08-17T04:30:26;16.95;;;6.88;;
842;SDS011;407;48.884;9.126;2023-08-17T04:32:52;15.70;;;6.50;;
842;SDS011;407;48.884;9.126;2023-08-17T04:35:18;17.03;;;6.43;;
842;SDS011;407;48.884;9.126;2023-08-17T04:37:46;16.85;;;6.90;;
842;SDS011;407;48.884;9.126;2023-08-17T04:40:12;18.70;;;8.17;;
842;SDS011;407;48.884;9.126;2023-08-17T04:42:38;14.23;;;6.60;;
842;SDS011;407;48.884;9.126;2023-08-17T04:45:04;20.07;;;7.47;;
842;SDS011;407;48.884;9.126;2023-08-17T04:47:30;20.13;;;6.80;;
842;SDS011;407;48.884;9.126;2023-08-17T04:49:56;16.83;;;6.90;;
842;SDS011;407;48.884;9.126;2023-08-17T04:52:21;16.30;;;6.77;;
842;SDS011;407;48.884;9.126;2023-08-17T04:54:47;17.13;;;7.20;;
842;SDS011;407;48.884;9.126;2023-08-17T04:57:12;15.20;;;6.77;;
842;SDS011;407;48.884;9.126;2023-08-17T04:59:38;18.87;;;7.47;;
842;SDS011;407;48.884;9.126;2023-08-17T05:02:03;15.55;;;7.35;;
842;SDS011;407;48.884;9.126;2023-08-17T05:04:29;19.13;;;6.57;;
842;SDS011;407;48.884;9.126;2023-08-17T05:06:56;13.27;;;6.78;;
842;SDS011;407;48.884;9.126;2023-08-17T05:09:21;15.33;;;7.40;;
842;SDS011;407;48.884;9.126;2023-08-17T05:11:47;17.50;;;7.60;;
842;SDS011;407;48.884;9.126;2023-08-17T05:14:12;16.07;;;7.30;;
842;SDS011;407;48.884;9.126;2023-08-17T05:16:38;19.13;;;6.70;;
842;SDS011;407;48.884;9.126;2023-08-17T05:19:03;16.20;;;6.80;;
842;SDS011;407;48.884;9.126;2023-08-17T05:21:29;16.50;;;6.60;;
842;SDS011;407;48.884;9.126;2023-08-17T05:23:55;17.17;;;7.57;;
842;SDS011;407;48.884;9.126;2023-08-17T05:26:21;18.50;;;6.50;;
842;SDS011;407;48.884;9.126;2023-08-17T05:28:47;15.00;;;6.80;;
842;SDS011;407;48.884;9.126;2023-08-17T05:31:13;13.27;;;6.20;;
842;SDS011;407;48.884;9.126;2023-08-17T05:33:39;18.03;;;6.87;;
842;SDS011;407;48.884;9.126;2023-08-17T05:36:06;19.20;;;7.67;;
842;SDS011;407;48.884;9.126;2023-08-17T05:38:31;16.40;;;7.10;;
842;SDS011;407;48.884;9.126;2023-08-17T05:40:58;17.83;;;7.47;;
842;SDS011;407;48.884;9.126;2023-08-17T05:43:24;17.00;;;6.90;;
842;SDS011;407;48.884;9.126;2023-08-17T05:45:50;15.40;;;7.57;;
842;SDS011;407;48.884;9.126;2023-08-17T05:48:20;17.50;;;7.80;;
842;SDS011;407;48.884;9.126;2023-08-17T05:50:46;17.05;;;7.40;;
842;SDS011;407;48.884;9.126;2023-08-17T05:53:12;14.57;;;7.32;;
842;SDS011;407;48.884;9.126;2023-08-17T05:55:38;14.40;;;6.93;;
842;SDS011;407;48.884;9.126;2023-08-17T05:58:03;16.27;;;7.13;;
842;SDS011;407;48.884;9.126;2023-08-17T06:00:29;17.53;;;6.70;;
842;SDS011;407;48.884;9.126;2023-08-17T06:02:55;17.53;;;7.40;;
842;SDS011;407;48.884;9.126;2023-08-17T06:05:26;14.73;;;7.13;;
842;SDS011;407;48.884;9.126;2023-08-17T06:07:58;17.37;;;7.00;;
842;SDS011;407;48.884;9.126;2023-08-17T06:10:24;15.20;;;6.75;;
842;SDS011;407;48.884;9.126;2023-08-17T06:12:54;15.77;;;7.30;;
842;SDS011;407;48.884;9.126;2023-08-17T06:15:21;15.57;;;6.87;;
842;SDS011;407;48.884;9.126;2023-08-17T06:17:47;14.20;;;7.53;;
842;SDS011;407;48.884;9.126;2023-08-17T06:20:15;15.07;;;7.10;;
842;SDS011;407;48.884;9.126;2023-08-17T06:22:41;15.65;;;7.38;;
842;SDS011;407;48.884;9.126;2023-08-17T06:25:07;13.57;;;6.90;;
842;SDS011;407;48.884;9.126;2023-08-17T06:27:33;16.15;;;7.45;;
842;SDS011;407;48.884;9.126;2023-08-17T06:30:00;13.15;;;6.57;;
842;SDS011;407;48.884;9.126;2023-08-17T06:32:25;16.13;;;6.47;;
842;SDS011;407;48.884;9.126;2023-08-17T06:34:51;15.27;;;7.00;;
842;SDS011;407;48.884;9.126;2023-08-17T06:37:19;13.77;;;7.10;;
842;SDS011;407;48.884;9.126;2023-08-17T06:39:44;14.10;;;7.13;;
842;SDS011;407;48.884;9.126;2023-08-17T06:42:10;15.67;;;7.53;;
842;SDS011;407;48.884;9.126;2023-08-17T06:44:35;14.83;;;8.00;;
842;SDS011;407;48.884;9.126;2023-08-17T06:47:01;15.37;;;7.90;;
842;SDS011;407;48.884;9.126;2023-08-17T06:49:26;11.80;;;6.70;;
842;SDS011;407;48.884;9.126;2023-08-17T06:51:52;16.17;;;7.93;;
842;SDS011;407;48.884;9.126;2023-08-17T06:54:18;15.02;;;7.60;;
842;SDS011;407;48.884;9.126;2023-08-17T06:56:43;15.63;;;7.28;;
842;SDS011;407;48.884;9.126;2023-08-17T06:59:09;14.13;;;7.17;;
842;SDS011;407;48.884;9.126;2023-08-17T07:01:34;13.93;;;7.20;;
842;SDS011;407;48.884;9.126;2023-08-17T07:04:00;20.30;;;7.53;;
842;SDS011;407;48.884;9.126;2023-08-17T07:06:25;16.70;;;8.30;;
842;SDS011;407;48.884;9.126;2023-08-17T07:08:51;18.60;;;8.03;;
842;SDS011;407;48.884;9.126;2023-08-17T07:11:17;15.50;;;7.20;;
842;SDS011;407;48.884;9.126;2023-08-17T07:13:43;16.70;;;8.40;;
842;SDS011;407;48.884;9.126;2023-08-17T07:16:09;17.57;;;7.87;;
842;SDS011;407;48.884;9.126;2023-08-17T07:18:34;18.87;;;8.17;;
842;SDS011;407;48.884;9.126;2023-08-17T07:21:00;17.92;;;8.48;;
842;SDS011;407;48.884;9.126;2023-08-17T07:23:26;16.73;;;7.72;;
842;SDS011;407;48.884;9.126;2023-08-17T07:25:51;18.13;;;8.27;;
842;SDS011;407;48.884;9.126;2023-08-17T07:28:17;17.05;;;7.95;;
842;SDS011;407;48.884;9.126;2023-08-17T07:30:43;16.02;;;7.15;;
842;SDS011;407;48.884;9.126;2023-08-17T07:33:09;16.10;;;8.40;;
842;SDS011;407;48.884;9.126;2023-08-17T07:35:34;15.87;;;8.17;;
842;SDS011;407;48.884;9.126;2023-08-17T07:38:00;15.50;;;8.03;;
842;SDS011;407;48.884;9.126;2023-08-17T07:40:26;16.30;;;7.30;;
842;SDS011;407;48.884;9.126;2023-08-17T07:42:51;18.13;;;7.83;;
842;SDS011;407;48.884;9.126;2023-08-17T07:45:17;14.73;;;7.27;;
842;SDS011;407;48.884;9.126;2023-08-17T07:47:42;17.20;;;8.00;;
842;SDS011;407;48.884;9.126;2023-08-17T07:50:08;14.57;;;7.57;;
842;SDS011;407;48.884;9.126;2023-08-17T07:52:34;16.80;;;8.67;;
842;SDS011;407;48.884;9.126;2023-08-17T07:54:59;16.53;;;7.70;;
842;SDS011;407;48.884;9.126;2023-08-17T07:57:25;14.37;;;7.30;;
842;SDS011;407;48.884;9.126;2023-08-17T07:59:50;17.93;;;7.10;;
842;SDS011;407;48.884;9.126;2023-08-17T08:02:16;16.23;;;7.72;;
842;SDS011;407;48.884;9.126;2023-08-17T08:04:42;15.00;;;8.63;;
842;SDS011;407;48.884;9.126;2023-08-17T08:07:08;15.00;;;7.60;;
842;SDS011;407;48.884;9.126;2023-08-17T08:09:34;15.35;;;7.90;;
842;SDS011;407;48.884;9.126;2023-08-17T08:12:00;15.43;;;7.63;;
842;SDS011;407;48.884;9.126;2023-08-17T08:14:25;12.50;;;7.10;;
842;SDS011;407;48.884;9.126;2023-08-17T08:16:51;15.63;;;7.90;;
842;SDS011;407;48.884;9.126;2023-08-17T08:19:16;15.80;;;8.10;;
842;SDS011;407;48.884;9.126;2023-08-17T08:21:42;15.20;;;7.37;;
842;SDS011;407;48.884;9.126;2023-08-17T08:24:08;14.63;;;6.80;;
842;SDS011;407;48.884;9.126;2023-08-17T08:26:33;15.10;;;6.85;;
842;SDS011;407;48.884;9.126;2023-08-17T08:28:59;12.63;;;7.00;;
842;SDS011;407;48.884;9.126;2023-08-17T08:31:25;13.85;;;6.93;;
842;SDS011;407;48.884;9.126;2023-08-17T08:33:51;14.17;;;6.17;;
842;SDS011;407;48.884;9.126;2023-08-17T08:36:17;15.18;;;7.00;;
842;SDS011;407;48.884;9.126;2023-08-17T08:38:43;12.57;;;6.75;;
842;SDS011;407;48.884;9.126;2023-08-17T08:41:09;14.10;;;7.20;;
842;SDS011;407;48.884;9.126;2023-08-17T08:43:36;13.63;;;7.30;;
842;SDS011;407;48.884;9.126;2023-08-17T08:46:01;12.63;;;7.27;;
842;SDS011;407;48.884;9.126;2023-08-17T08:48:27;14.23;;;7.30;;
842;SDS011;407;48.884;9.126;2023-08-17T08:50:54;15.27;;;8.05;;
842;SDS011;407;48.884;9.126;2023-08-17T08:53:23;14.70;;;7.53;;
842;SDS011;407;48.884;9.126;2023-08-17T08:55:55;15.77;;;8.17;;
842;SDS011;407;48.884;9.126;2023-08-17T08:58:22;14.38;;;7.60;;
842;SDS011;407;48.884;9.126;2023-08-17T09:00:50;14.00;;;6.82;;
842;SDS011;407;48.884;9.126;2023-08-17T09:03:17;16.20;;;8.63;;
842;SDS011;407;48.884;9.126;2023-08-17T09:05:46;14.10;;;7.20;;
842;SDS011;407;48.884;9.126;2023-08-17T09:08:13;14.80;;;7.93;;
842;SDS011;407;48.884;9.126;2023-08-17T09:10:40;13.07;;;7.60;;
842;SDS011;407;48.884;9.126;2023-08-17T09:13:06;13.38;;;7.57;;
842;SDS011;407;48.884;9.126;2023-08-17T09:15:32;13.35;;;6.93;;
842;SDS011;407;48.884;9.126;2023-08-17T09:17:58;12.07;;;6.43;;
842;SDS011;407;48.884;9.126;2023-08-17T09:20:37;12.88;;;7.10;;
842;SDS011;407;48.884;9.126;2023-08-17T09:23:04;14.82;;;7.10;;
842;SDS011;407;48.884;9.126;2023-08-17T09:25:36;10.30;;;5.77;;
842;SDS011;407;48.884;9.126;2023-08-17T09:28:10;12.80;;;6.93;;
842;SDS011;407;48.884;9.126;2023-08-17T09:30:59;14.18;;;7.53;;
842;SDS011;407;48.884;9.126;2023-08-17T09:33:25;12.73;;;7.53;;
842;SDS011;407;48.884;9.126;2023-08-17T09:35:54;12.27;;;6.75;;
842;SDS011;407;48.884;9.126;2023-08-17T09:38:21;14.83;;;8.37;;
842;SDS011;407;48.884;9.126;2023-08-17T09:40:47;12.67;;;6.70;;
842;SDS011;407;48.884;9.126;2023-08-17T09:43:16;12.48;;;6.60;;
842;SDS011;407;48.884;9.126;2023-08-17T09:45:43;17.15;;;7.50;;
842;SDS011;407;48.884;9.126;2023-08-17T09:48:14;13.65;;;6.25;;
842;SDS011;407;48.884;9.126;2023-08-17T09:50:43;16.00;;;7.13;;
842;SDS011;407;48.884;9.126;2023-08-17T09:53:13;15.98;;;6.72;;
842;SDS011;407;48.884;9.126;2023-08-17T09:55:40;13.18;;;7.60;;
842;SDS011;407;48.884;9.126;2023-08-17T09:58:07;12.70;;;7.00;;
842;SDS011;407;48.884;9.126;2023-08-17T10:00:33;13.20;;;7.17;;
842;SDS011;407;48.884;9.126;2023-08-17T10:03:01;14.70;;;7.60;;
842;SDS011;407;48.884;9.126;2023-08-17T10:05:28;14.77;;;8.15;;
842;SDS011;407;48.884;9.126;2023-08-17T10:07:57;13.60;;;6.53;;
842;SDS011;407;48.884;9.126;2023-08-17T10:10:26;13.60;;;7.78;;
842;SDS011;407;48.884;9.126;2023-08-17T10:16:22;14.60;;;7.30;;
842;SDS011;407;48.884;9.126;2023-08-17T10:21:22;12.85;;;6.80;;
842;SDS011;407;48.884;9.126;2023-08-17T10:23:52;18.88;;;7.53;;
842;SDS011;407;48.884;9.126;2023-08-17T10:26:19;13.60;;;6.32;;
842;SDS011;407;48.884;9.126;2023-08-17T10:28:46;13.40;;;7.05;;
842;SDS011;407;48.884;9.126;2023-08-17T10:31:12;13.85;;;6.90;;
842;SDS011;407;48.884;9.126;2023-08-17T10:33:39;13.00;;;7.20;;
842;SDS011;407;48.884;9.126;2023-08-17T10:36:08;13.25;;;6.95;;
842;SDS011;407;48.884;9.126;2023-08-17T10:38:34;11.70;;;6.47;;
842;SDS011;407;48.884;9.126;2023-08-17T10:41:13;14.07;;;7.50;;
842;SDS011;407;48.884;9.126;2023-08-17T10:46:33;15.60;;;8.30;;
842;SDS011;407;48.884;9.126;2023-08-17T10:49:04;12.43;;;7.10;;
842;SDS011;407;48.884;9.126;2023-08-17T10:51:31;14.60;;;7.20;;
842;SDS011;407;48.884;9.126;2023-08-17T10:53:58;15.63;;;8.43;;
842;SDS011;407;48.884;9.126;2023-08-17T10:56:26;13.00;;;6.65;;
842;SDS011;407;48.884;9.126;2023-08-17T10:58:53;14.55;;;7.00;;
842;SDS011;407;48.884;9.126;2023-08-17T11:01:35;18.60;;;9.00;;
842;SDS011;407;48.884;9.126;2023-08-17T11:04:11;16.70;;;8.13;;
842;SDS011;407;48.884;9.126;2023-08-17T11:06:41;15.93;;;8.05;;
842;SDS011;407;48.884;9.126;2023-08-17T11:09:10;14.00;;;8.00;;
842;SDS011;407;48.884;9.126;2023-08-17T11:11:36;19.80;;;9.90;;
842;SDS011;407;48.884;9.126;2023-08-17T11:14:02;16.27;;;8.13;;
842;SDS011;407;48.884;9.126;2023-08-17T11:16:28;16.73;;;9.85;;
842;SDS011;407;48.884;9.126;2023-08-17T11:18:54;15.87;;;8.73;;
842;SDS011;407;48.884;9.126;2023-08-17T11:21:22;15.10;;;8.00;;
842;SDS011;407;48.884;9.126;2023-08-17T11:23:48;14.07;;;7.00;;
842;SDS011;407;48.884;9.126;2023-08-17T11:26:17;14.30;;;7.37;;
842;SDS011;407;48.884;9.126;2023-08-17T11:28:44;14.63;;;7.53;;
842;SDS011;407;48.884;9.126;2023-08-17T11:31:10;14.20;;;7.30;;
842;SDS011;407;48.884;9.126;2023-08-17T11:33:37;14.55;;;7.10;;
842;SDS011;407;48.884;9.126;2023-08-17T11:36:05;14.80;;;6.80;;
842;SDS011;407;48.884;9.126;2023-08-17T11:40:58;14.57;;;7.43;;
842;SDS011;407;48.884;9.126;2023-08-17T11:43:25;12.45;;;6.43;;
842;SDS011;407;48.884;9.126;2023-08-17T11:45:52;13.95;;;7.07;;
842;SDS011;407;48.884;9.126;2023-08-17T11:48:20;15.57;;;7.07;;
842;SDS011;407;48.884;9.126;2023-08-17T11:50:46;14.02;;;6.57;;
842;SDS011;407;48.884;9.126;2023-08-17T11:53:12;11.93;;;6.30;;
842;SDS011;407;48.884;9.126;2023-08-17T11:55:38;14.07;;;7.30;;
842;SDS011;407;48.884;9.126;2023-08-17T11:58:03;13.00;;;6.10;;
842;SDS011;407;48.884;9.126;2023-08-17T12:00:34;11.05;;;5.28;;
842;SDS011;407;48.884;9.126;2023-08-17T12:03:15;14.00;;;6.20;;
842;SDS011;407;48.884;9.126;2023-08-17T12:05:41;11.87;;;5.70;;
842;SDS011;407;48.884;9.126;2023-08-17T12:08:07;11.05;;;5.60;;
842;SDS011;407;48.884;9.126;2023-08-17T12:10:33;12.10;;;5.40;;
842;SDS011;407;48.884;9.126;2023-08-17T12:12:59;10.13;;;5.55;;
842;SDS011;407;48.884;9.126;2023-08-17T12:15:29;11.13;;;5.20;;
842;SDS011;407;48.884;9.126;2023-08-17T12:17:58;10.30;;;4.60;;
842;SDS011;407;48.884;9.126;2023-08-17T12:20:24;10.35;;;4.50;;
842;SDS011;407;48.884;9.126;2023-08-17T12:22:49;9.27;;;4.50;;
842;SDS011;407;48.884;9.126;2023-08-17T12:25:15;9.00;;;4.25;;
842;SDS011;407;48.884;9.126;2023-08-17T12:27:41;9.00;;;4.47;;
842;SDS011;407;48.884;9.126;2023-08-17T12:30:14;10.83;;;4.70;;
842;SDS011;407;48.884;9.126;2023-08-17T12:32:50;11.82;;;5.40;;
842;SDS011;407;48.884;9.126;2023-08-17T12:35:15;9.33;;;4.50;;
842;SDS011;407;48.884;9.126;2023-08-17T12:37:41;11.70;;;4.67;;
842;SDS011;407;48.884;9.126;2023-08-17T12:40:06;10.53;;;5.10;;
842;SDS011;407;48.884;9.126;2023-08-17T12:42:33;8.75;;;4.60;;
842;SDS011;407;48.884;9.126;2023-08-17T12:44:58;9.83;;;4.53;;
842;SDS011;407;48.884;9.126;2023-08-17T12:47:24;8.27;;;4.10;;
842;SDS011;407;48.884;9.126;2023-08-17T12:49:49;11.00;;;4.60;;
842;SDS011;407;48.884;9.126;2023-08-17T12:52:15;8.95;;;4.28;;
842;SDS011;407;48.884;9.126;2023-08-17T12:54:40;11.00;;;4.20;;
842;SDS011;407;48.884;9.126;2023-08-17T12:57:06;13.93;;;4.93;;
842;SDS011;407;48.884;9.126;2023-08-17T12:59:31;11.30;;;5.43;;
842;SDS011;407;48.884;9.126;2023-08-17T13:01:57;9.98;;;4.80;;
842;SDS011;407;48.884;9.126;2023-08-17T13:04:23;10.23;;;4.80;;
842;SDS011;407;48.884;9.126;2023-08-17T13:06:48;12.63;;;5.82;;
842;SDS011;407;48.884;9.126;2023-08-17T13:09:16;11.93;;;5.20;;
842;SDS011;407;48.884;9.126;2023-08-17T13:11:43;10.40;;;4.97;;
842;SDS011;407;48.884;9.126;2023-08-17T13:14:09;11.23;;;5.25;;
842;SDS011;407;48.884;9.126;2023-08-17T13:21:54;11.35;;;5.88;;
842;SDS011;407;48.884;9.126;2023-08-17T13:24:20;11.82;;;6.30;;
842;SDS011;407;48.884;9.126;2023-08-17T13:26:45;15.30;;;6.47;;
842;SDS011;407;48.884;9.126;2023-08-17T13:29:11;11.70;;;5.90;;
842;SDS011;407;48.884;9.126;2023-08-17T13:31:36;11.73;;;5.70;;
842;SDS011;407;48.884;9.126;2023-08-17T13:34:02;13.63;;;6.60;;
842;SDS011;407;48.884;9.126;2023-08-17T13:36:28;13.57;;;6.70;;
842;SDS011;407;48.884;9.126;2023-08-17T13:38:54;13.93;;;6.47;;
842;SDS011;407;48.884;9.126;2023-08-17T13:41:19;12.90;;;6.40;;
842;SDS011;407;48.884;9.126;2023-08-17T13:43:45;13.30;;;7.03;;
842;SDS011;407;48.884;9.126;2023-08-17T13:46:11;14.73;;;7.10;;
842;SDS011;407;48.884;9.126;2023-08-17T13:48:37;13.57;;;7.37;;
842;SDS011;407;48.884;9.126;2023-08-17T13:51:04;16.05;;;7.85;;
842;SDS011;407;48.884;9.126;2023-08-17T13:53:29;12.63;;;7.30;;
842;SDS011;407;48.884;9.126;2023-08-17T13:55:55;15.13;;;7.73;;
842;SDS011;407;48.884;9.126;2023-08-17T13:58:20;16.00;;;8.40;;
842;SDS011;407;48.884;9.126;2023-08-17T14:00:46;17.60;;;8.07;;
842;SDS011;407;48.884;9.126;2023-08-17T14:03:11;14.57;;;8.00;;
842;SDS011;407;48.884;9.126;2023-08-17T14:05:37;18.20;;;8.35;;
842;SDS011;407;48.884;9.126;2023-08-17T14:08:03;17.50;;;7.60;;
842;SDS011;407;48.884;9.126;2023-08-17T14:10:29;12.43;;;6.90;;
842;SDS011;407;48.884;9.126;2023-08-17T14:12:54;13.33;;;6.40;;
842;SDS011;407;48.884;9.126;2023-08-17T14:15:20;13.47;;;6.57;;
842;SDS011;407;48.884;9.126;2023-08-17T14:17:47;14.52;;;7.00;;
842;SDS011;407;48.884;9.126;2023-08-17T14:20:13;12.10;;;6.80;;
842;SDS011;407;48.884;9.126;2023-08-17T14:22:39;14.55;;;7.40;;
842;SDS011;407;48.884;9.126;2023-08-17T14:25:05;14.50;;;7.10;;
842;SDS011;407;48.884;9.126;2023-08-17T14:27:30;14.63;;;6.90;;
842;SDS011;407;48.884;9.126;2023-08-17T14:29:56;12.93;;;6.23;;
842;SDS011;407;48.884;9.126;2023-08-17T14:32:26;12.17;;;6.33;;
842;SDS011;407;48.884;9.126;2023-08-17T14:34:51;13.20;;;6.87;;
842;SDS011;407;48.884;9.126;2023-08-17T14:37:17;11.93;;;6.17;;
842;SDS011;407;48.884;9.126;2023-08-17T14:39:42;13.53;;;6.40;;
842;SDS011;407;48.884;9.126;2023-08-17T14:42:08;11.87;;;6.50;;
842;SDS011;407;48.884;9.126;2023-08-17T14:44:33;16.30;;;7.47;;
842;SDS011;407;48.884;9.126;2023-08-17T14:46:59;15.70;;;6.87;;
842;SDS011;407;48.884;9.126;2023-08-17T14:49:24;14.30;;;8.18;;
842;SDS011;407;48.884;9.126;2023-08-17T14:51:50;15.73;;;7.60;;
842;SDS011;407;48.884;9.126;2023-08-17T14:54:17;13.45;;;7.10;;
842;SDS011;407;48.884;9.126;2023-08-17T14:56:42;12.60;;;6.90;;
842;SDS011;407;48.884;9.126;2023-08-17T14:59:10;12.68;;;6.20;;
842;SDS011;407;48.884;9.126;2023-08-17T15:01:35;14.75;;;7.40;;
842;SDS011;407;48.884;9.126;2023-08-17T15:04:01;11.57;;;6.23;;
842;SDS011;407;48.884;9.126;2023-08-17T15:06:26;13.30;;;6.43;;
842;SDS011;407;48.884;9.126;2023-08-17T15:08:52;13.10;;;6.30;;
842;SDS011;407;48.884;9.126;2023-08-17T15:11:18;13.03;;;6.50;;
842;SDS011;407;48.884;9.126;2023-08-17T15:13:43;14.67;;;6.80;;
842;SDS011;407;48.884;9.126;2023-08-17T15:16:12;14.57;;;6.50;;
842;SDS011;407;48.884;9.126;2023-08-17T15:18:38;13.32;;;6.20;;
842;SDS011;407;48.884;9.126;2023-08-17T15:21:03;11.40;;;5.90;;
842;SDS011;407;48.884;9.126;2023-08-17T15:23:29;11.17;;;5.73;;
842;SDS011;407;48.884;9.126;2023-08-17T15:25:54;13.90;;;6.60;;
842;SDS011;407;48.884;9.126;2023-08-17T15:28:20;13.43;;;5.60;;
842;SDS011;407;48.884;9.126;2023-08-17T15:30:48;12.43;;;5.97;;
842;SDS011;407;48.884;9.126;2023-08-17T15:33:24;12.40;;;5.47;;
842;SDS011;407;48.884;9.126;2023-08-17T15:35:49;11.37;;;5.83;;
842;SDS011;407;48.884;9.126;2023-08-17T15:38:15;12.03;;;5.30;;
842;SDS011;407;48.884;9.126;2023-08-17T15:40:40;11.23;;;5.90;;
842;SDS011;407;48.884;9.126;2023-08-17T15:43:06;11.20;;;5.63;;
842;SDS011;407;48.884;9.126;2023-08-17T15:45:31;9.75;;;4.60;;
842;SDS011;407;48.884;9.126;2023-08-17T15:47:57;11.73;;;5.50;;
842;SDS011;407;48.884;9.126;2023-08-17T15:50:22;11.63;;;5.70;;